sensor_id;sensor_type;location;lat;lon;timestamp;P1;durP1;ratioP1;P2;durP2;ratioP2
41829;SDS011;38614;43.472;23.936;2023-09-19T00:02:39;3.28;;;2.65;;
41829;SDS011;38614;43.472;23.936;2023-09-19T00:05:28;3.53;;;2.78;;
41829;SDS011;38614;43.472;23.936;2023-09-19T00:08:16;6.60;;;3.17;;
41829;SDS011;38614;43.472;23.936;2023-09-19T00:11:04;5.53;;;2.33;;
41829;SDS011;38614;43.472;23.936;2023-09-19T00:13:53;7.40;;;3.05;;
41829;SDS011;38614;43.472;23.936;2023-09-19T00:16:41;6.45;;;2.60;;
41829;SDS011;38614;43.472;23.936;2023-09-19T00:19:35;10.38;;;2.60;;
41829;SDS011;38614;43.472;23.936;2023-09-19T00:22:23;5.25;;;2.80;;
41829;SDS011;38614;43.472;23.936;2023-09-19T00:25:13;4.75;;;2.60;;
41829;SDS011;38614;43.472;23.936;2023-09-19T00:28:03;8.75;;;3.15;;
41829;SDS011;38614;43.472;23.936;2023-09-19T00:30:54;5.18;;;2.75;;
41829;SDS011;38614;43.472;23.936;2023-09-19T00:33:42;3.33;;;2.95;;
41829;SDS011;38614;43.472;23.936;2023-09-19T00:36:30;3.65;;;2.72;;
41829;SDS011;38614;43.472;23.936;2023-09-19T00:39:18;7.15;;;2.65;;
41829;SDS011;38614;43.472;23.936;2023-09-19T00:42:07;10.25;;;2.40;;
41829;SDS011;38614;43.472;23.936;2023-09-19T00:44:55;10.05;;;3.13;;
41829;SDS011;38614;43.472;23.936;2023-09-19T00:47:44;6.80;;;2.72;;
41829;SDS011;38614;43.472;23.936;2023-09-19T00:50:36;3.22;;;1.88;;
41829;SDS011;38614;43.472;23.936;2023-09-19T00:53:29;3.42;;;2.53;;
41829;SDS011;38614;43.472;23.936;2023-09-19T00:56:21;6.85;;;2.78;;
41829;SDS011;38614;43.472;23.936;2023-09-19T00:59:10;5.85;;;3.13;;
41829;SDS011;38614;43.472;23.936;2023-09-19T01:01:59;8.93;;;3.03;;
41829;SDS011;38614;43.472;23.936;2023-09-19T01:04:47;5.55;;;2.15;;
41829;SDS011;38614;43.472;23.936;2023-09-19T01:07:36;3.20;;;2.05;;
41829;SDS011;38614;43.472;23.936;2023-09-19T01:10:27;8.13;;;2.42;;
41829;SDS011;38614;43.472;23.936;2023-09-19T01:19:44;4.78;;;2.42;;
41829;SDS011;38614;43.472;23.936;2023-09-19T01:26:18;3.67;;;2.40;;
41829;SDS011;38614;43.472;23.936;2023-09-19T01:29:38;3.10;;;2.55;;
41829;SDS011;38614;43.472;23.936;2023-09-19T01:32:31;4.63;;;2.58;;
41829;SDS011;38614;43.472;23.936;2023-09-19T01:35:20;2.70;;;2.05;;
41829;SDS011;38614;43.472;23.936;2023-09-19T01:38:08;2.80;;;2.08;;
41829;SDS011;38614;43.472;23.936;2023-09-19T01:41:03;4.43;;;1.92;;
41829;SDS011;38614;43.472;23.936;2023-09-19T01:43:59;4.88;;;2.35;;
41829;SDS011;38614;43.472;23.936;2023-09-19T01:46:50;2.80;;;2.05;;
41829;SDS011;38614;43.472;23.936;2023-09-19T01:50:29;4.53;;;1.98;;
41829;SDS011;38614;43.472;23.936;2023-09-19T01:59:41;3.05;;;1.55;;
41829;SDS011;38614;43.472;23.936;2023-09-19T02:02:36;3.53;;;1.85;;
41829;SDS011;38614;43.472;23.936;2023-09-19T02:05:25;5.22;;;1.67;;
41829;SDS011;38614;43.472;23.936;2023-09-19T02:08:19;1.45;;;1.15;;
41829;SDS011;38614;43.472;23.936;2023-09-19T02:11:13;8.18;;;1.45;;
41829;SDS011;38614;43.472;23.936;2023-09-19T02:14:02;2.88;;;1.70;;
41829;SDS011;38614;43.472;23.936;2023-09-19T02:16:51;8.05;;;1.63;;
41829;SDS011;38614;43.472;23.936;2023-09-19T02:19:39;2.08;;;1.60;;
41829;SDS011;38614;43.472;23.936;2023-09-19T02:22:28;9.85;;;1.13;;
41829;SDS011;38614;43.472;23.936;2023-09-19T02:25:16;2.80;;;1.40;;
41829;SDS011;38614;43.472;23.936;2023-09-19T02:28:05;2.63;;;1.20;;
41829;SDS011;38614;43.472;23.936;2023-09-19T02:30:53;3.03;;;1.63;;
41829;SDS011;38614;43.472;23.936;2023-09-19T02:33:42;1.45;;;1.08;;
41829;SDS011;38614;43.472;23.936;2023-09-19T02:36:30;3.35;;;2.47;;
41829;SDS011;38614;43.472;23.936;2023-09-19T02:39:18;3.38;;;1.75;;
41829;SDS011;38614;43.472;23.936;2023-09-19T02:42:06;8.55;;;2.22;;
41829;SDS011;38614;43.472;23.936;2023-09-19T02:44:54;1.83;;;1.25;;
41829;SDS011;38614;43.472;23.936;2023-09-19T02:47:44;7.68;;;1.40;;
41829;SDS011;38614;43.472;23.936;2023-09-19T02:50:33;2.15;;;1.27;;
41829;SDS011;38614;43.472;23.936;2023-09-19T02:53:21;3.75;;;1.25;;
41829;SDS011;38614;43.472;23.936;2023-09-19T02:56:09;6.30;;;1.23;;
41829;SDS011;38614;43.472;23.936;2023-09-19T02:59:01;7.88;;;1.75;;
41829;SDS011;38614;43.472;23.936;2023-09-19T03:01:50;1.80;;;1.25;;
41829;SDS011;38614;43.472;23.936;2023-09-19T03:04:38;9.18;;;1.52;;
41829;SDS011;38614;43.472;23.936;2023-09-19T03:07:26;3.55;;;1.75;;
41829;SDS011;38614;43.472;23.936;2023-09-19T03:10:14;1.98;;;1.52;;
41829;SDS011;38614;43.472;23.936;2023-09-19T03:13:03;3.40;;;1.70;;
41829;SDS011;38614;43.472;23.936;2023-09-19T03:15:53;4.43;;;2.30;;
41829;SDS011;38614;43.472;23.936;2023-09-19T03:18:45;5.57;;;1.50;;
41829;SDS011;38614;43.472;23.936;2023-09-19T03:21:35;4.45;;;1.55;;
41829;SDS011;38614;43.472;23.936;2023-09-19T03:24:23;6.68;;;1.55;;
41829;SDS011;38614;43.472;23.936;2023-09-19T03:27:11;2.67;;;1.58;;
41829;SDS011;38614;43.472;23.936;2023-09-19T03:32:56;10.18;;;1.67;;
41829;SDS011;38614;43.472;23.936;2023-09-19T03:35:51;5.47;;;2.00;;
41829;SDS011;38614;43.472;23.936;2023-09-19T03:38:40;2.28;;;1.52;;
41829;SDS011;38614;43.472;23.936;2023-09-19T03:41:29;2.85;;;1.52;;
41829;SDS011;38614;43.472;23.936;2023-09-19T03:44:17;4.60;;;1.50;;
41829;SDS011;38614;43.472;23.936;2023-09-19T03:47:05;12.10;;;2.33;;
41829;SDS011;38614;43.472;23.936;2023-09-19T03:49:54;6.32;;;1.42;;
41829;SDS011;38614;43.472;23.936;2023-09-19T03:52:46;6.95;;;3.03;;
41829;SDS011;38614;43.472;23.936;2023-09-19T03:55:47;7.07;;;2.90;;
41829;SDS011;38614;43.472;23.936;2023-09-19T03:58:36;3.75;;;1.85;;
41829;SDS011;38614;43.472;23.936;2023-09-19T04:01:26;10.07;;;1.95;;
41829;SDS011;38614;43.472;23.936;2023-09-19T04:04:15;2.05;;;1.48;;
41829;SDS011;38614;43.472;23.936;2023-09-19T04:07:06;5.18;;;1.58;;
41829;SDS011;38614;43.472;23.936;2023-09-19T04:09:56;9.23;;;2.25;;
41829;SDS011;38614;43.472;23.936;2023-09-19T04:12:51;9.57;;;1.90;;
41829;SDS011;38614;43.472;23.936;2023-09-19T04:15:45;6.88;;;1.60;;
41829;SDS011;38614;43.472;23.936;2023-09-19T04:18:33;2.88;;;1.92;;
41829;SDS011;38614;43.472;23.936;2023-09-19T04:21:25;3.05;;;1.27;;
41829;SDS011;38614;43.472;23.936;2023-09-19T04:24:14;3.83;;;1.55;;
41829;SDS011;38614;43.472;23.936;2023-09-19T04:27:02;5.43;;;2.15;;
41829;SDS011;38614;43.472;23.936;2023-09-19T04:29:50;15.80;;;2.60;;
41829;SDS011;38614;43.472;23.936;2023-09-19T04:32:38;6.50;;;2.17;;
41829;SDS011;38614;43.472;23.936;2023-09-19T04:35:29;12.55;;;2.35;;
41829;SDS011;38614;43.472;23.936;2023-09-19T04:38:19;6.60;;;2.78;;
41829;SDS011;38614;43.472;23.936;2023-09-19T04:41:06;3.58;;;2.40;;
41829;SDS011;38614;43.472;23.936;2023-09-19T04:43:55;6.15;;;2.05;;
41829;SDS011;38614;43.472;23.936;2023-09-19T04:46:43;9.07;;;3.05;;
41829;SDS011;38614;43.472;23.936;2023-09-19T04:49:31;6.90;;;1.75;;
41829;SDS011;38614;43.472;23.936;2023-09-19T04:52:24;13.82;;;1.85;;
41829;SDS011;38614;43.472;23.936;2023-09-19T04:55:15;7.63;;;2.05;;
41829;SDS011;38614;43.472;23.936;2023-09-19T04:58:06;5.85;;;1.80;;
41829;SDS011;38614;43.472;23.936;2023-09-19T05:00:54;10.40;;;2.35;;
41829;SDS011;38614;43.472;23.936;2023-09-19T05:03:43;4.05;;;2.35;;
41829;SDS011;38614;43.472;23.936;2023-09-19T05:06:32;6.07;;;3.25;;
41829;SDS011;38614;43.472;23.936;2023-09-19T05:09:21;12.80;;;2.55;;
41829;SDS011;38614;43.472;23.936;2023-09-19T05:12:08;3.95;;;2.40;;
41829;SDS011;38614;43.472;23.936;2023-09-19T05:14:57;4.47;;;2.50;;
41829;SDS011;38614;43.472;23.936;2023-09-19T05:17:49;8.75;;;2.90;;
41829;SDS011;38614;43.472;23.936;2023-09-19T05:20:43;4.93;;;2.10;;
41829;SDS011;38614;43.472;23.936;2023-09-19T05:23:31;11.02;;;2.25;;
41829;SDS011;38614;43.472;23.936;2023-09-19T05:26:20;4.20;;;1.70;;
41829;SDS011;38614;43.472;23.936;2023-09-19T05:29:08;2.45;;;1.25;;
41829;SDS011;38614;43.472;23.936;2023-09-19T05:31:56;2.10;;;1.83;;
41829;SDS011;38614;43.472;23.936;2023-09-19T05:34:44;2.20;;;1.90;;
41829;SDS011;38614;43.472;23.936;2023-09-19T05:37:32;4.13;;;1.80;;
41829;SDS011;38614;43.472;23.936;2023-09-19T05:40:20;10.35;;;1.30;;
41829;SDS011;38614;43.472;23.936;2023-09-19T05:43:11;4.15;;;2.05;;
41829;SDS011;38614;43.472;23.936;2023-09-19T05:45:59;5.90;;;2.88;;
41829;SDS011;38614;43.472;23.936;2023-09-19T05:48:47;12.32;;;3.17;;
41829;SDS011;38614;43.472;23.936;2023-09-19T05:51:37;13.20;;;3.08;;
41829;SDS011;38614;43.472;23.936;2023-09-19T05:54:24;8.07;;;2.97;;
41829;SDS011;38614;43.472;23.936;2023-09-19T05:57:12;11.20;;;3.08;;
41829;SDS011;38614;43.472;23.936;2023-09-19T06:00:01;9.45;;;5.85;;
41829;SDS011;38614;43.472;23.936;2023-09-19T06:02:58;12.07;;;6.85;;
41829;SDS011;38614;43.472;23.936;2023-09-19T06:05:46;12.05;;;6.68;;
41829;SDS011;38614;43.472;23.936;2023-09-19T06:08:36;14.40;;;5.45;;
41829;SDS011;38614;43.472;23.936;2023-09-19T06:11:24;10.75;;;6.03;;
41829;SDS011;38614;43.472;23.936;2023-09-19T06:14:13;10.23;;;5.78;;
41829;SDS011;38614;43.472;23.936;2023-09-19T06:17:01;13.40;;;7.25;;
41829;SDS011;38614;43.472;23.936;2023-09-19T06:19:50;9.02;;;5.32;;
41829;SDS011;38614;43.472;23.936;2023-09-19T06:22:38;20.20;;;5.88;;
41829;SDS011;38614;43.472;23.936;2023-09-19T06:25:29;5.95;;;4.13;;
41829;SDS011;38614;43.472;23.936;2023-09-19T06:28:16;14.90;;;4.50;;
41829;SDS011;38614;43.472;23.936;2023-09-19T06:31:10;6.65;;;3.92;;
41829;SDS011;38614;43.472;23.936;2023-09-19T06:33:58;6.15;;;4.03;;
41829;SDS011;38614;43.472;23.936;2023-09-19T06:36:46;3.35;;;2.95;;
41829;SDS011;38614;43.472;23.936;2023-09-19T06:39:34;4.18;;;2.65;;
41829;SDS011;38614;43.472;23.936;2023-09-19T06:42:24;4.40;;;2.58;;
41829;SDS011;38614;43.472;23.936;2023-09-19T06:45:13;6.00;;;2.95;;
41829;SDS011;38614;43.472;23.936;2023-09-19T06:48:06;9.52;;;2.83;;
41829;SDS011;38614;43.472;23.936;2023-09-19T06:50:54;7.38;;;3.55;;
41829;SDS011;38614;43.472;23.936;2023-09-19T06:53:42;4.90;;;2.85;;
41829;SDS011;38614;43.472;23.936;2023-09-19T06:56:30;6.10;;;3.25;;
41829;SDS011;38614;43.472;23.936;2023-09-19T06:59:19;5.25;;;2.47;;
41829;SDS011;38614;43.472;23.936;2023-09-19T07:02:07;10.73;;;3.10;;
41829;SDS011;38614;43.472;23.936;2023-09-19T07:04:55;6.97;;;3.00;;
41829;SDS011;38614;43.472;23.936;2023-09-19T07:07:43;4.57;;;3.08;;
41829;SDS011;38614;43.472;23.936;2023-09-19T07:10:32;8.63;;;3.80;;
41829;SDS011;38614;43.472;23.936;2023-09-19T07:13:20;5.13;;;3.55;;
41829;SDS011;38614;43.472;23.936;2023-09-19T07:16:08;5.72;;;3.72;;
41829;SDS011;38614;43.472;23.936;2023-09-19T07:18:57;5.40;;;3.55;;
41829;SDS011;38614;43.472;23.936;2023-09-19T07:21:46;13.93;;;3.22;;
41829;SDS011;38614;43.472;23.936;2023-09-19T07:24:34;13.90;;;4.15;;
41829;SDS011;38614;43.472;23.936;2023-09-19T07:27:23;7.82;;;4.10;;
41829;SDS011;38614;43.472;23.936;2023-09-19T07:30:12;4.35;;;2.97;;
41829;SDS011;38614;43.472;23.936;2023-09-19T07:33:03;6.95;;;3.80;;
41829;SDS011;38614;43.472;23.936;2023-09-19T07:35:54;6.70;;;3.65;;
41829;SDS011;38614;43.472;23.936;2023-09-19T07:38:42;3.55;;;2.80;;
41829;SDS011;38614;43.472;23.936;2023-09-19T07:41:30;5.35;;;2.75;;
41829;SDS011;38614;43.472;23.936;2023-09-19T07:44:19;11.10;;;3.25;;
41829;SDS011;38614;43.472;23.936;2023-09-19T07:47:07;3.67;;;3.05;;
41829;SDS011;38614;43.472;23.936;2023-09-19T07:49:58;5.20;;;2.75;;
41829;SDS011;38614;43.472;23.936;2023-09-19T07:52:47;6.68;;;3.20;;
41829;SDS011;38614;43.472;23.936;2023-09-19T07:55:38;5.47;;;3.42;;
41829;SDS011;38614;43.472;23.936;2023-09-19T07:58:28;11.13;;;2.88;;
41829;SDS011;38614;43.472;23.936;2023-09-19T08:01:16;8.05;;;3.63;;
41829;SDS011;38614;43.472;23.936;2023-09-19T08:04:04;4.70;;;3.78;;
41829;SDS011;38614;43.472;23.936;2023-09-19T08:06:52;9.15;;;3.33;;
41829;SDS011;38614;43.472;23.936;2023-09-19T08:09:40;5.47;;;2.45;;
41829;SDS011;38614;43.472;23.936;2023-09-19T08:12:29;6.78;;;3.53;;
41829;SDS011;38614;43.472;23.936;2023-09-19T08:15:18;5.75;;;2.85;;
41829;SDS011;38614;43.472;23.936;2023-09-19T08:18:07;5.30;;;2.65;;
41829;SDS011;38614;43.472;23.936;2023-09-19T08:20:59;3.72;;;2.47;;
41829;SDS011;38614;43.472;23.936;2023-09-19T08:23:49;5.57;;;2.55;;
41829;SDS011;38614;43.472;23.936;2023-09-19T08:26:37;9.20;;;3.08;;
41829;SDS011;38614;43.472;23.936;2023-09-19T08:29:25;5.63;;;2.50;;
41829;SDS011;38614;43.472;23.936;2023-09-19T08:32:15;9.27;;;2.58;;
41829;SDS011;38614;43.472;23.936;2023-09-19T08:35:03;12.00;;;2.67;;
41829;SDS011;38614;43.472;23.936;2023-09-19T08:37:54;3.47;;;2.60;;
41829;SDS011;38614;43.472;23.936;2023-09-19T08:40:43;2.65;;;1.92;;
41829;SDS011;38614;43.472;23.936;2023-09-19T08:43:31;11.80;;;2.22;;
41829;SDS011;38614;43.472;23.936;2023-09-19T08:46:21;3.78;;;1.75;;
41829;SDS011;38614;43.472;23.936;2023-09-19T08:49:24;8.10;;;1.80;;
41829;SDS011;38614;43.472;23.936;2023-09-19T08:52:22;19.05;;;2.10;;
41829;SDS011;38614;43.472;23.936;2023-09-19T08:55:14;4.63;;;2.25;;
41829;SDS011;38614;43.472;23.936;2023-09-19T08:58:10;7.43;;;1.70;;
41829;SDS011;38614;43.472;23.936;2023-09-19T09:01:00;1.80;;;1.58;;
41829;SDS011;38614;43.472;23.936;2023-09-19T09:03:49;17.02;;;3.28;;
41829;SDS011;38614;43.472;23.936;2023-09-19T09:06:38;4.55;;;1.77;;
41829;SDS011;38614;43.472;23.936;2023-09-19T09:09:30;1.77;;;1.40;;
41829;SDS011;38614;43.472;23.936;2023-09-19T09:12:18;2.30;;;1.45;;
41829;SDS011;38614;43.472;23.936;2023-09-19T09:15:07;8.13;;;2.22;;
41829;SDS011;38614;43.472;23.936;2023-09-19T09:17:58;1.77;;;1.38;;
41829;SDS011;38614;43.472;23.936;2023-09-19T09:20:48;9.43;;;2.20;;
41829;SDS011;38614;43.472;23.936;2023-09-19T09:23:39;5.22;;;0.93;;
41829;SDS011;38614;43.472;23.936;2023-09-19T09:32:34;1.38;;;0.95;;
41829;SDS011;38614;43.472;23.936;2023-09-19T09:35:31;2.40;;;1.00;;
41829;SDS011;38614;43.472;23.936;2023-09-19T09:38:23;1.48;;;0.88;;
41829;SDS011;38614;43.472;23.936;2023-09-19T09:41:19;1.52;;;0.65;;
41829;SDS011;38614;43.472;23.936;2023-09-19T09:44:25;1.38;;;0.40;;
41829;SDS011;38614;43.472;23.936;2023-09-19T09:47:31;4.35;;;0.65;;
41829;SDS011;38614;43.472;23.936;2023-09-19T09:50:46;0.60;;;0.50;;
41829;SDS011;38614;43.472;23.936;2023-09-19T09:53:37;1.25;;;0.80;;
41829;SDS011;38614;43.472;23.936;2023-09-19T09:56:26;1.80;;;0.52;;
41829;SDS011;38614;43.472;23.936;2023-09-19T09:59:18;2.90;;;1.48;;
41829;SDS011;38614;43.472;23.936;2023-09-19T10:02:11;1.15;;;0.70;;
41829;SDS011;38614;43.472;23.936;2023-09-19T10:05:03;5.28;;;0.60;;
41829;SDS011;38614;43.472;23.936;2023-09-19T10:08:21;6.03;;;1.35;;
41829;SDS011;38614;43.472;23.936;2023-09-19T10:11:15;1.27;;;0.70;;
41829;SDS011;38614;43.472;23.936;2023-09-19T10:14:03;12.20;;;0.75;;
41829;SDS011;38614;43.472;23.936;2023-09-19T10:16:53;1.17;;;0.60;;
41829;SDS011;38614;43.472;23.936;2023-09-19T10:19:57;1.30;;;0.40;;
41829;SDS011;38614;43.472;23.936;2023-09-19T10:22:46;1.23;;;0.65;;
41829;SDS011;38614;43.472;23.936;2023-09-19T10:25:45;2.28;;;0.60;;
41829;SDS011;38614;43.472;23.936;2023-09-19T10:28:34;0.95;;;0.28;;
41829;SDS011;38614;43.472;23.936;2023-09-19T10:31:24;5.10;;;0.63;;
41829;SDS011;38614;43.472;23.936;2023-09-19T10:34:15;8.40;;;1.10;;
41829;SDS011;38614;43.472;23.936;2023-09-19T10:37:08;1.50;;;0.60;;
41829;SDS011;38614;43.472;23.936;2023-09-19T10:39:59;1.55;;;0.70;;
41829;SDS011;38614;43.472;23.936;2023-09-19T10:42:47;2.78;;;0.55;;
41829;SDS011;38614;43.472;23.936;2023-09-19T10:45:37;1.15;;;0.45;;
41829;SDS011;38614;43.472;23.936;2023-09-19T10:48:27;2.77;;;0.70;;
41829;SDS011;38614;43.472;23.936;2023-09-19T10:51:17;2.53;;;0.70;;
41829;SDS011;38614;43.472;23.936;2023-09-19T10:54:11;6.38;;;0.93;;
41829;SDS011;38614;43.472;23.936;2023-09-19T10:57:03;21.00;;;1.17;;
41829;SDS011;38614;43.472;23.936;2023-09-19T11:00:05;0.52;;;0.40;;
41829;SDS011;38614;43.472;23.936;2023-09-19T11:06:07;0.90;;;0.65;;
41829;SDS011;38614;43.472;23.936;2023-09-19T11:09:01;1.30;;;0.70;;
41829;SDS011;38614;43.472;23.936;2023-09-19T11:27:15;11.35;;;1.08;;
41829;SDS011;38614;43.472;23.936;2023-09-19T11:36:16;2.75;;;0.50;;
41829;SDS011;38614;43.472;23.936;2023-09-19T11:39:05;5.45;;;0.73;;
41829;SDS011;38614;43.472;23.936;2023-09-19T11:41:56;3.37;;;0.53;;
41829;SDS011;38614;43.472;23.936;2023-09-19T11:44:44;3.80;;;0.30;;
41829;SDS011;38614;43.472;23.936;2023-09-19T11:47:31;3.65;;;1.02;;
41829;SDS011;38614;43.472;23.936;2023-09-19T11:50:22;4.00;;;0.88;;
41829;SDS011;38614;43.472;23.936;2023-09-19T11:53:11;5.78;;;0.80;;
41829;SDS011;38614;43.472;23.936;2023-09-19T11:55:59;0.68;;;0.65;;
41829;SDS011;38614;43.472;23.936;2023-09-19T11:58:51;2.10;;;0.70;;
41829;SDS011;38614;43.472;23.936;2023-09-19T12:01:50;8.88;;;1.17;;
41829;SDS011;38614;43.472;23.936;2023-09-19T12:04:42;11.90;;;1.00;;
41829;SDS011;38614;43.472;23.936;2023-09-19T12:07:34;2.67;;;1.70;;
41829;SDS011;38614;43.472;23.936;2023-09-19T12:10:33;3.20;;;1.23;;
41829;SDS011;38614;43.472;23.936;2023-09-19T12:13:46;2.78;;;0.73;;
41829;SDS011;38614;43.472;23.936;2023-09-19T12:16:36;6.47;;;0.88;;
41829;SDS011;38614;43.472;23.936;2023-09-19T12:19:24;4.50;;;0.75;;
41829;SDS011;38614;43.472;23.936;2023-09-19T12:22:12;5.43;;;0.90;;
41829;SDS011;38614;43.472;23.936;2023-09-19T12:25:07;1.92;;;0.50;;
41829;SDS011;38614;43.472;23.936;2023-09-19T12:27:58;4.30;;;0.47;;
41829;SDS011;38614;43.472;23.936;2023-09-19T12:30:46;0.82;;;0.60;;
41829;SDS011;38614;43.472;23.936;2023-09-19T12:33:34;6.82;;;0.47;;
41829;SDS011;38614;43.472;23.936;2023-09-19T12:36:24;3.28;;;0.98;;
41829;SDS011;38614;43.472;23.936;2023-09-19T12:39:22;3.03;;;1.05;;
41829;SDS011;38614;43.472;23.936;2023-09-19T12:42:14;4.05;;;0.40;;
41829;SDS011;38614;43.472;23.936;2023-09-19T12:45:03;5.20;;;0.82;;
41829;SDS011;38614;43.472;23.936;2023-09-19T12:51:16;4.72;;;0.57;;
41829;SDS011;38614;43.472;23.936;2023-09-19T12:54:09;2.28;;;0.82;;
41829;SDS011;38614;43.472;23.936;2023-09-19T12:57:02;5.28;;;0.60;;
41829;SDS011;38614;43.472;23.936;2023-09-19T12:59:52;1.35;;;0.75;;
41829;SDS011;38614;43.472;23.936;2023-09-19T13:03:08;3.78;;;1.00;;
41829;SDS011;38614;43.472;23.936;2023-09-19T13:06:05;1.27;;;0.50;;
41829;SDS011;38614;43.472;23.936;2023-09-19T13:09:07;1.77;;;0.55;;
41829;SDS011;38614;43.472;23.936;2023-09-19T13:11:56;2.38;;;0.93;;
41829;SDS011;38614;43.472;23.936;2023-09-19T13:14:46;0.57;;;0.57;;
41829;SDS011;38614;43.472;23.936;2023-09-19T13:17:44;3.90;;;0.82;;
41829;SDS011;38614;43.472;23.936;2023-09-19T13:20:37;0.73;;;0.45;;
41829;SDS011;38614;43.472;23.936;2023-09-19T13:23:31;1.27;;;0.75;;
41829;SDS011;38614;43.472;23.936;2023-09-19T13:26:19;2.10;;;0.82;;
41829;SDS011;38614;43.472;23.936;2023-09-19T13:29:07;4.20;;;0.70;;
41829;SDS011;38614;43.472;23.936;2023-09-19T13:31:54;1.08;;;0.80;;
41829;SDS011;38614;43.472;23.936;2023-09-19T13:34:42;2.50;;;1.08;;
41829;SDS011;38614;43.472;23.936;2023-09-19T13:37:33;2.65;;;0.70;;
41829;SDS011;38614;43.472;23.936;2023-09-19T13:40:23;7.30;;;0.40;;
41829;SDS011;38614;43.472;23.936;2023-09-19T13:43:12;3.42;;;1.25;;
41829;SDS011;38614;43.472;23.936;2023-09-19T13:46:00;5.00;;;0.85;;
41829;SDS011;38614;43.472;23.936;2023-09-19T13:48:50;3.75;;;1.27;;
41829;SDS011;38614;43.472;23.936;2023-09-19T13:51:37;9.27;;;0.82;;
41829;SDS011;38614;43.472;23.936;2023-09-19T13:54:25;3.88;;;0.73;;
41829;SDS011;38614;43.472;23.936;2023-09-19T13:57:17;2.17;;;0.70;;
41829;SDS011;38614;43.472;23.936;2023-09-19T14:00:07;1.70;;;0.70;;
41829;SDS011;38614;43.472;23.936;2023-09-19T14:02:58;1.55;;;0.80;;
41829;SDS011;38614;43.472;23.936;2023-09-19T14:05:50;3.47;;;1.17;;
41829;SDS011;38614;43.472;23.936;2023-09-19T14:08:39;0.57;;;0.38;;
41829;SDS011;38614;43.472;23.936;2023-09-19T14:11:27;2.78;;;0.52;;
41829;SDS011;38614;43.472;23.936;2023-09-19T14:14:14;7.38;;;1.52;;
41829;SDS011;38614;43.472;23.936;2023-09-19T14:17:05;10.75;;;0.90;;
41829;SDS011;38614;43.472;23.936;2023-09-19T14:19:54;1.75;;;0.80;;
41829;SDS011;38614;43.472;23.936;2023-09-19T14:22:43;1.75;;;0.75;;
41829;SDS011;38614;43.472;23.936;2023-09-19T14:25:33;5.32;;;0.90;;
41829;SDS011;38614;43.472;23.936;2023-09-19T14:28:22;1.45;;;0.77;;
41829;SDS011;38614;43.472;23.936;2023-09-19T14:31:12;1.80;;;0.63;;
41829;SDS011;38614;43.472;23.936;2023-09-19T14:34:03;2.55;;;1.05;;
41829;SDS011;38614;43.472;23.936;2023-09-19T14:36:53;1.27;;;1.05;;
41829;SDS011;38614;43.472;23.936;2023-09-19T14:40:04;3.80;;;0.80;;
41829;SDS011;38614;43.472;23.936;2023-09-19T14:42:55;4.65;;;0.63;;
41829;SDS011;38614;43.472;23.936;2023-09-19T14:45:49;2.13;;;1.08;;
41829;SDS011;38614;43.472;23.936;2023-09-19T14:48:39;4.65;;;1.17;;
41829;SDS011;38614;43.472;23.936;2023-09-19T14:51:28;0.95;;;0.85;;
41829;SDS011;38614;43.472;23.936;2023-09-19T14:54:17;2.35;;;1.50;;
41829;SDS011;38614;43.472;23.936;2023-09-19T14:57:06;2.60;;;1.30;;
41829;SDS011;38614;43.472;23.936;2023-09-19T14:59:56;4.55;;;0.60;;
41829;SDS011;38614;43.472;23.936;2023-09-19T15:02:44;2.35;;;1.15;;
41829;SDS011;38614;43.472;23.936;2023-09-19T15:05:33;3.67;;;1.10;;
41829;SDS011;38614;43.472;23.936;2023-09-19T15:08:21;3.70;;;1.27;;
41829;SDS011;38614;43.472;23.936;2023-09-19T15:11:10;3.72;;;1.40;;
41829;SDS011;38614;43.472;23.936;2023-09-19T15:13:59;8.40;;;1.42;;
41829;SDS011;38614;43.472;23.936;2023-09-19T15:16:48;6.78;;;1.30;;
41829;SDS011;38614;43.472;23.936;2023-09-19T15:19:36;7.88;;;1.40;;
41829;SDS011;38614;43.472;23.936;2023-09-19T15:22:24;3.88;;;0.82;;
41829;SDS011;38614;43.472;23.936;2023-09-19T15:25:14;6.50;;;1.30;;
41829;SDS011;38614;43.472;23.936;2023-09-19T15:28:04;4.35;;;0.70;;
41829;SDS011;38614;43.472;23.936;2023-09-19T15:31:03;6.07;;;1.03;;
41829;SDS011;38614;43.472;23.936;2023-09-19T15:33:53;1.98;;;0.85;;
41829;SDS011;38614;43.472;23.936;2023-09-19T15:36:41;5.47;;;1.02;;
41829;SDS011;38614;43.472;23.936;2023-09-19T15:39:30;4.65;;;1.00;;
41829;SDS011;38614;43.472;23.936;2023-09-19T15:42:21;19.52;;;1.35;;
41829;SDS011;38614;43.472;23.936;2023-09-19T15:45:08;3.35;;;1.65;;
41829;SDS011;38614;43.472;23.936;2023-09-19T15:47:57;4.25;;;1.25;;
41829;SDS011;38614;43.472;23.936;2023-09-19T15:50:48;1.77;;;1.08;;
41829;SDS011;38614;43.472;23.936;2023-09-19T15:56:33;4.55;;;1.02;;
41829;SDS011;38614;43.472;23.936;2023-09-19T15:59:27;2.70;;;0.70;;
41829;SDS011;38614;43.472;23.936;2023-09-19T16:02:20;3.33;;;1.15;;
41829;SDS011;38614;43.472;23.936;2023-09-19T16:05:11;5.93;;;0.80;;
41829;SDS011;38614;43.472;23.936;2023-09-19T16:08:05;5.18;;;0.93;;
41829;SDS011;38614;43.472;23.936;2023-09-19T16:10:56;6.55;;;0.95;;
41829;SDS011;38614;43.472;23.936;2023-09-19T16:13:44;3.75;;;1.83;;
41829;SDS011;38614;43.472;23.936;2023-09-19T16:16:37;8.10;;;1.42;;
41829;SDS011;38614;43.472;23.936;2023-09-19T16:22:16;4.10;;;1.00;;
41829;SDS011;38614;43.472;23.936;2023-09-19T16:25:09;0.70;;;0.60;;
41829;SDS011;38614;43.472;23.936;2023-09-19T16:28:02;4.05;;;1.70;;
41829;SDS011;38614;43.472;23.936;2023-09-19T16:30:51;6.43;;;0.88;;
41829;SDS011;38614;43.472;23.936;2023-09-19T16:33:40;6.05;;;0.85;;
41829;SDS011;38614;43.472;23.936;2023-09-19T16:36:32;1.90;;;1.00;;
41829;SDS011;38614;43.472;23.936;2023-09-19T16:39:22;1.13;;;0.98;;
41829;SDS011;38614;43.472;23.936;2023-09-19T16:42:11;5.20;;;1.70;;
41829;SDS011;38614;43.472;23.936;2023-09-19T16:45:08;9.10;;;1.70;;
41829;SDS011;38614;43.472;23.936;2023-09-19T16:47:57;3.00;;;1.27;;
41829;SDS011;38614;43.472;23.936;2023-09-19T16:50:45;9.07;;;1.13;;
41829;SDS011;38614;43.472;23.936;2023-09-19T16:53:34;2.25;;;1.42;;
41829;SDS011;38614;43.472;23.936;2023-09-19T16:56:23;2.35;;;1.25;;
41829;SDS011;38614;43.472;23.936;2023-09-19T16:59:11;7.03;;;1.90;;
41829;SDS011;38614;43.472;23.936;2023-09-19T17:02:00;2.50;;;1.10;;
41829;SDS011;38614;43.472;23.936;2023-09-19T17:04:51;8.68;;;1.63;;
41829;SDS011;38614;43.472;23.936;2023-09-19T17:07:39;1.55;;;0.90;;
41829;SDS011;38614;43.472;23.936;2023-09-19T17:10:31;5.10;;;1.27;;
41829;SDS011;38614;43.472;23.936;2023-09-19T17:13:21;3.65;;;1.65;;
41829;SDS011;38614;43.472;23.936;2023-09-19T17:16:10;6.55;;;1.50;;
41829;SDS011;38614;43.472;23.936;2023-09-19T17:18:59;11.65;;;2.25;;
41829;SDS011;38614;43.472;23.936;2023-09-19T17:21:50;7.32;;;1.48;;
41829;SDS011;38614;43.472;23.936;2023-09-19T17:24:38;2.65;;;1.55;;
41829;SDS011;38614;43.472;23.936;2023-09-19T17:27:29;5.18;;;1.42;;
41829;SDS011;38614;43.472;23.936;2023-09-19T17:30:18;2.03;;;1.25;;
41829;SDS011;38614;43.472;23.936;2023-09-19T17:33:05;12.65;;;2.95;;
41829;SDS011;38614;43.472;23.936;2023-09-19T17:36:07;3.85;;;1.13;;
41829;SDS011;38614;43.472;23.936;2023-09-19T17:39:01;3.17;;;1.10;;
41829;SDS011;38614;43.472;23.936;2023-09-19T17:41:52;7.25;;;1.55;;
41829;SDS011;38614;43.472;23.936;2023-09-19T17:44:39;4.78;;;1.75;;
41829;SDS011;38614;43.472;23.936;2023-09-19T17:47:27;6.05;;;1.50;;
41829;SDS011;38614;43.472;23.936;2023-09-19T17:50:15;3.83;;;1.58;;
41829;SDS011;38614;43.472;23.936;2023-09-19T17:53:03;2.47;;;1.02;;